createdAt,value
2019-03-21T00:00:16.604Z,1012.19
2019-03-21T00:01:16.581Z,1012.16
2019-03-21T00:02:16.556Z,1012.13
2019-03-21T00:03:16.529Z,1012.17
2019-03-21T00:04:16.503Z,1012.11
2019-03-21T00:05:16.484Z,1012.14
2019-03-21T00:06:16.457Z,1012.18
2019-03-21T00:07:16.436Z,1012.16
2019-03-21T00:08:16.414Z,1012.18
2019-03-21T00:09:16.381Z,1012.18
2019-03-21T00:10:16.352Z,1012.18
2019-03-21T00:11:16.337Z,1012.21
2019-03-21T00:12:16.312Z,1012.18
2019-03-21T00:13:16.283Z,1012.16
2019-03-21T00:14:16.260Z,1012.19
2019-03-21T00:15:16.233Z,1012.20
2019-03-21T00:16:16.213Z,1012.21
2019-03-21T00:17:16.186Z,1012.23
2019-03-21T00:18:16.181Z,1012.19
2019-03-21T00:19:16.136Z,1012.20
2019-03-21T00:20:16.109Z,1012.19
2019-03-21T00:21:16.088Z,1012.20
2019-03-21T00:22:16.064Z,1012.20
2019-03-21T00:23:16.039Z,1012.23
2019-03-21T00:24:16.008Z,1012.20
2019-03-21T00:25:15.985Z,1012.18
2019-03-21T00:26:15.958Z,1012.17
2019-03-21T00:27:15.935Z,1012.19
2019-03-21T00:28:15.916Z,1012.22
2019-03-21T00:29:15.884Z,1012.20
2019-03-21T00:30:15.859Z,1012.21
2019-03-21T00:31:15.832Z,1012.23
2019-03-21T00:32:15.820Z,1012.19
2019-03-21T00:33:15.784Z,1012.20
2019-03-21T00:34:15.765Z,1012.18
2019-03-21T00:35:15.774Z,1012.20
2019-03-21T00:36:15.716Z,1012.23
2019-03-21T00:37:15.683Z,1012.20
2019-03-21T00:38:15.657Z,1012.14
2019-03-21T00:39:15.635Z,1012.17
2019-03-21T00:40:15.612Z,1012.14
2019-03-21T00:41:15.584Z,1012.14
2019-03-21T00:42:15.566Z,1012.14
2019-03-21T00:43:15.535Z,1012.09
2019-03-21T00:44:18.447Z,1012.15
2019-03-21T00:45:15.489Z,1012.14
2019-03-21T00:46:15.457Z,1012.12
2019-03-21T00:47:15.442Z,1012.13
2019-03-21T00:48:15.414Z,1012.09
2019-03-21T00:49:15.388Z,1012.07
2019-03-21T00:50:15.367Z,1012.10
2019-03-21T00:51:15.334Z,1012.12
2019-03-21T00:52:15.312Z,1012.10
2019-03-21T00:53:15.299Z,1012.10
2019-03-21T00:54:15.261Z,1012.11
2019-03-21T00:55:15.270Z,1012.10
2019-03-21T00:56:15.211Z,1012.12
2019-03-21T00:57:15.187Z,1012.11
2019-03-21T00:58:15.161Z,1012.15
2019-03-21T00:59:15.135Z,1012.11
2019-03-21T01:00:15.116Z,1012.11
2019-03-21T01:01:15.087Z,1012.12
2019-03-21T01:02:15.059Z,1012.11
2019-03-21T01:03:15.033Z,1012.13
2019-03-21T01:04:15.017Z,1012.14
2019-03-21T01:05:15.030Z,1012.17
2019-03-21T01:06:14.965Z,1012.17
2019-03-21T01:07:14.942Z,1012.18
2019-03-21T01:08:14.913Z,1012.19
2019-03-21T01:09:14.884Z,1012.12
2019-03-21T01:10:14.859Z,1012.15
2019-03-21T01:11:14.837Z,1012.09
2019-03-21T01:12:14.811Z,1012.09
2019-03-21T01:13:14.785Z,1012.08
2019-03-21T01:14:14.772Z,1012.09
2019-03-21T01:15:14.743Z,1012.11
2019-03-21T01:16:14.714Z,1012.08
2019-03-21T01:17:14.686Z,1012.09
2019-03-21T01:18:14.660Z,1012.05
2019-03-21T01:19:14.635Z,1012.02
2019-03-21T01:20:14.622Z,1012.01
2019-03-21T01:21:14.584Z,1012.04
2019-03-21T01:22:14.564Z,1011.98
2019-03-21T01:23:14.542Z,1011.98
2019-03-21T01:24:14.519Z,1011.97
2019-03-21T01:25:14.484Z,1011.96
2019-03-21T01:26:14.459Z,1011.94
2019-03-21T01:27:14.440Z,1011.96
2019-03-21T01:28:14.413Z,1011.93
2019-03-21T01:29:14.386Z,1011.93
2019-03-21T01:30:14.363Z,1011.93
2019-03-21T01:31:14.339Z,1011.99
2019-03-21T01:32:14.353Z,1011.97
2019-03-21T01:33:14.288Z,1011.97
2019-03-21T01:34:14.256Z,1012.00
2019-03-21T01:35:14.237Z,1011.96
2019-03-21T01:36:14.214Z,1011.99
2019-03-21T01:37:14.185Z,1011.97
2019-03-21T01:38:14.157Z,1011.97
2019-03-21T01:39:14.134Z,1011.97
2019-03-21T01:40:14.107Z,1011.96
2019-03-21T01:41:14.084Z,1011.98
2019-03-21T01:42:14.100Z,1011.97
2019-03-21T01:43:14.040Z,1011.98
2019-03-21T01:44:14.008Z,1011.99
2019-03-21T01:45:13.989Z,1012.00
2019-03-21T01:46:13.957Z,1011.95
2019-03-21T01:47:13.931Z,1011.93
2019-03-21T01:48:13.906Z,1011.95
2019-03-21T01:49:13.880Z,1011.97
2019-03-21T01:50:13.854Z,1011.95
2019-03-21T01:51:13.838Z,1011.92
2019-03-21T01:52:13.813Z,1011.93
2019-03-21T01:53:13.785Z,1011.94
2019-03-21T01:54:13.755Z,1011.96
2019-03-21T01:55:13.730Z,1011.95
2019-03-21T01:56:13.711Z,1011.99
2019-03-21T01:57:13.692Z,1011.97
2019-03-21T01:58:13.663Z,1011.98
2019-03-21T01:59:13.637Z,1011.99
2019-03-21T02:00:13.605Z,1011.95
2019-03-21T02:01:13.582Z,1011.97
2019-03-21T02:02:13.570Z,1011.91
2019-03-21T02:03:13.536Z,1011.93
2019-03-21T02:04:13.508Z,1011.91
2019-03-21T02:05:13.484Z,1011.93
2019-03-21T02:06:13.462Z,1011.96
2019-03-21T02:07:13.437Z,1011.94
2019-03-21T02:08:13.407Z,1011.93
2019-03-21T02:09:13.388Z,1011.93
2019-03-21T02:10:13.353Z,1011.92
2019-03-21T02:11:13.335Z,1011.91
2019-03-21T02:12:13.322Z,1011.94
2019-03-21T02:13:13.293Z,1011.93
2019-03-21T02:14:13.258Z,1011.93
2019-03-21T02:15:13.236Z,1011.90
2019-03-21T02:16:13.203Z,1011.89
2019-03-21T02:17:13.187Z,1011.85
2019-03-21T02:18:13.160Z,1011.86
2019-03-21T02:19:13.132Z,1011.81
2019-03-21T02:20:13.116Z,1011.82
2019-03-21T02:21:13.078Z,1011.86
2019-03-21T02:22:13.052Z,1011.80
2019-03-21T02:23:13.029Z,1011.84
2019-03-21T02:24:13.012Z,1011.84
2019-03-21T02:25:12.982Z,1011.84
2019-03-21T02:26:12.959Z,1011.87
2019-03-21T02:27:12.935Z,1011.83
2019-03-21T02:28:12.922Z,1011.82
2019-03-21T02:29:12.886Z,1011.83
2019-03-21T02:30:12.859Z,1011.86
2019-03-21T02:31:12.826Z,1011.86
2019-03-21T02:32:12.807Z,1011.82
2019-03-21T02:33:12.786Z,1011.86
2019-03-21T02:34:12.750Z,1011.88
2019-03-21T02:35:12.729Z,1011.88
2019-03-21T02:36:12.711Z,1011.91
2019-03-21T02:37:12.685Z,1011.87
2019-03-21T02:38:12.656Z,1011.84
2019-03-21T02:39:12.651Z,1011.85
2019-03-21T02:40:12.602Z,1011.91
2019-03-21T02:41:12.583Z,1011.95
2019-03-21T02:42:12.553Z,1011.87
2019-03-21T02:43:12.533Z,1011.87
2019-03-21T02:44:12.501Z,1011.88
2019-03-21T02:45:12.503Z,1011.89
2019-03-21T02:46:12.450Z,1011.83
2019-03-21T02:47:12.426Z,1011.87
2019-03-21T02:48:12.405Z,1011.86
2019-03-21T02:49:12.383Z,1011.87
2019-03-21T02:50:12.351Z,1011.88
2019-03-21T02:51:12.324Z,1011.85
2019-03-21T02:52:12.305Z,1011.84
2019-03-21T02:53:12.274Z,1011.83
2019-03-21T02:54:12.256Z,1011.86
2019-03-21T02:55:12.222Z,1011.84
2019-03-21T02:56:12.203Z,1011.82
2019-03-21T02:57:12.175Z,1011.86
2019-03-21T02:58:12.149Z,1011.84
2019-03-21T02:59:12.130Z,1011.84
2019-03-21T03:00:12.097Z,1011.85
2019-03-21T03:01:12.076Z,1011.89
2019-03-21T03:02:12.053Z,1011.89
2019-03-21T03:03:12.024Z,1011.89
2019-03-21T03:04:11.997Z,1011.88
2019-03-21T03:05:11.981Z,1011.86
2019-03-21T03:06:11.957Z,1011.94
2019-03-21T03:07:11.934Z,1011.94
2019-03-21T03:08:11.898Z,1011.93
2019-03-21T03:09:11.883Z,1011.94
2019-03-21T03:10:11.852Z,1011.93
2019-03-21T03:11:11.822Z,1011.91
2019-03-21T03:12:11.803Z,1011.91
2019-03-21T03:13:11.781Z,1011.91
2019-03-21T03:14:11.746Z,1011.91
2019-03-21T03:15:21.773Z,1011.93
2019-03-21T03:16:11.699Z,1011.91
2019-03-21T03:17:11.670Z,1011.94
2019-03-21T03:18:11.653Z,1011.95
2019-03-21T03:19:11.624Z,1011.94
2019-03-21T03:20:11.596Z,1011.95
2019-03-21T03:21:11.581Z,1011.98
2019-03-21T03:22:11.568Z,1011.96
2019-03-21T03:23:11.574Z,1011.96
2019-03-21T03:24:11.497Z,1011.98
2019-03-21T03:25:11.472Z,1011.94
2019-03-21T03:26:11.446Z,1011.91
2019-03-21T03:27:11.428Z,1011.92
2019-03-21T03:28:11.394Z,1011.94
2019-03-21T03:29:11.369Z,1011.91
2019-03-21T03:30:11.344Z,1011.93
2019-03-21T03:31:11.327Z,1011.97
2019-03-21T03:32:11.303Z,1011.89
2019-03-21T03:33:11.281Z,1011.89
2019-03-21T03:34:11.252Z,1011.90
2019-03-21T03:35:11.226Z,1011.83
2019-03-21T03:36:11.201Z,1011.82
2019-03-21T03:37:11.171Z,1011.82
2019-03-21T03:38:11.146Z,1011.82
2019-03-21T03:39:11.117Z,1011.78
2019-03-21T03:40:11.109Z,1011.80
2019-03-21T03:41:11.077Z,1011.79
2019-03-21T03:42:11.049Z,1011.75
2019-03-21T03:43:11.017Z,1011.78
2019-03-21T03:44:10.998Z,1011.81
2019-03-21T03:45:10.973Z,1011.84
2019-03-21T03:46:10.946Z,1011.81
2019-03-21T03:47:10.917Z,1011.82
2019-03-21T03:48:10.899Z,1011.81
2019-03-21T03:49:10.866Z,1011.85
2019-03-21T03:50:10.847Z,1011.81
2019-03-21T03:51:10.814Z,1011.80
2019-03-21T03:52:10.791Z,1011.83
2019-03-21T03:53:10.770Z,1011.83
2019-03-21T03:54:10.742Z,1011.81
2019-03-21T03:55:10.720Z,1011.80
2019-03-21T03:56:10.695Z,1011.79
2019-03-21T03:57:10.668Z,1011.82
2019-03-21T03:58:10.637Z,1011.73
2019-03-21T03:59:10.638Z,1011.77
2019-03-21T04:00:10.593Z,1011.76
2019-03-21T04:01:10.572Z,1011.79
2019-03-21T04:02:10.545Z,1011.79
2019-03-21T04:03:10.516Z,1011.79
2019-03-21T04:04:10.488Z,1011.81
2019-03-21T04:05:10.465Z,1011.81
2019-03-21T04:06:10.533Z,1011.82
2019-03-21T04:07:10.418Z,1011.78
2019-03-21T04:08:10.386Z,1011.80
2019-03-21T04:09:10.394Z,1011.78
2019-03-21T04:10:10.342Z,1011.81
2019-03-21T04:11:10.311Z,1011.83
2019-03-21T04:12:10.285Z,1011.82
2019-03-21T04:13:10.264Z,1011.86
2019-03-21T04:14:10.251Z,1011.84
2019-03-21T04:15:10.209Z,1011.84
2019-03-21T04:16:10.186Z,1011.84
2019-03-21T04:17:10.164Z,1011.83
2019-03-21T04:18:10.141Z,1011.85
2019-03-21T04:19:10.127Z,1011.87
2019-03-21T04:20:10.082Z,1011.91
2019-03-21T04:21:10.061Z,1011.90
2019-03-21T04:22:10.032Z,1011.94
2019-03-21T04:23:10.006Z,1011.92
2019-03-21T04:24:09.986Z,1011.93
2019-03-21T04:25:09.966Z,1011.91
2019-03-21T04:26:09.970Z,1011.90
2019-03-21T04:27:09.904Z,1011.90
2019-03-21T04:28:09.891Z,1011.93
2019-03-21T04:29:09.855Z,1011.94
2019-03-21T04:30:09.843Z,1011.99
2019-03-21T04:31:09.804Z,1011.98
2019-03-21T04:32:09.799Z,1012.01
2019-03-21T04:33:09.759Z,1012.01
2019-03-21T04:34:09.733Z,1011.99
2019-03-21T04:35:09.701Z,1011.99
2019-03-21T04:36:09.675Z,1011.99
2019-03-21T04:37:09.649Z,1012.02
2019-03-21T04:38:09.624Z,1012.01
2019-03-21T04:39:09.606Z,1012.00
2019-03-21T04:40:09.605Z,1012.03
2019-03-21T04:41:09.553Z,1012.08
2019-03-21T04:42:09.527Z,1012.06
2019-03-21T04:43:09.498Z,1012.06
2019-03-21T04:44:09.475Z,1012.06
2019-03-21T04:45:09.447Z,1012.08
2019-03-21T04:46:09.440Z,1012.06
2019-03-21T04:47:09.401Z,1012.05
2019-03-21T04:48:09.377Z,1012.07
2019-03-21T04:49:09.351Z,1012.05
2019-03-21T04:50:09.321Z,1012.04
2019-03-21T04:51:09.301Z,1012.03
2019-03-21T04:52:09.270Z,1012.01
2019-03-21T04:53:09.247Z,1011.98
2019-03-21T04:54:09.219Z,1012.03
2019-03-21T04:55:09.196Z,1011.98
2019-03-21T04:56:09.171Z,1011.98
2019-03-21T04:57:09.145Z,1011.96
2019-03-21T04:58:09.116Z,1011.98
2019-03-21T04:59:09.091Z,1011.96
2019-03-21T05:00:09.108Z,1011.99
2019-03-21T05:01:09.046Z,1011.99
2019-03-21T05:02:09.018Z,1011.99
2019-03-21T05:03:08.992Z,1011.98
2019-03-21T05:04:08.969Z,1011.99
2019-03-21T05:05:08.944Z,1012.02
2019-03-21T05:06:08.919Z,1012.03
2019-03-21T05:07:08.903Z,1012.02
2019-03-21T05:08:08.861Z,1012.03
2019-03-21T05:09:08.835Z,1012.01
2019-03-21T05:10:08.814Z,1012.03
2019-03-21T05:11:08.787Z,1012.05
2019-03-21T05:12:08.758Z,1012.03
2019-03-21T05:13:08.733Z,1012.01
2019-03-21T05:14:08.714Z,1011.98
2019-03-21T05:15:08.689Z,1012.01
2019-03-21T05:16:14.786Z,1011.96
2019-03-21T05:17:08.647Z,1011.96
2019-03-21T05:18:08.612Z,1011.98
2019-03-21T05:19:08.583Z,1011.97
2019-03-21T05:20:08.560Z,1011.97
2019-03-21T05:21:08.530Z,1012.00
2019-03-21T05:22:08.513Z,1011.95
2019-03-21T05:23:08.485Z,1011.96
2019-03-21T05:24:08.456Z,1011.95
2019-03-21T05:25:08.434Z,1011.95
2019-03-21T05:26:08.410Z,1011.92
2019-03-21T05:27:08.380Z,1011.96
2019-03-21T05:28:08.347Z,1011.97
2019-03-21T05:29:08.325Z,1012.02
2019-03-21T05:30:08.346Z,1012.01
2019-03-21T05:31:08.279Z,1011.99
2019-03-21T05:32:08.247Z,1011.96
2019-03-21T05:33:08.283Z,1012.03
2019-03-21T05:34:08.234Z,1012.02
2019-03-21T05:35:08.178Z,1012.02
2019-03-21T05:36:08.150Z,1012.03
2019-03-21T05:37:08.120Z,1012.04
2019-03-21T05:38:08.100Z,1012.07
2019-03-21T05:39:08.072Z,1012.07
2019-03-21T05:40:08.046Z,1012.08
2019-03-21T05:41:08.018Z,1012.11
2019-03-21T05:42:07.999Z,1012.12
2019-03-21T05:43:07.969Z,1012.10
2019-03-21T05:44:07.954Z,1012.07
2019-03-21T05:45:07.924Z,1012.08
2019-03-21T05:46:07.895Z,1012.09
2019-03-21T05:47:07.873Z,1012.06
2019-03-21T05:48:07.837Z,1012.05
2019-03-21T05:49:07.829Z,1012.10
2019-03-21T05:50:07.793Z,1012.10
2019-03-21T05:51:07.767Z,1012.10
2019-03-21T05:52:07.740Z,1012.12
2019-03-21T05:53:07.721Z,1012.13
2019-03-21T05:54:07.691Z,1012.12
2019-03-21T05:55:07.667Z,1012.13
2019-03-21T05:56:07.650Z,1012.15
2019-03-21T05:57:07.618Z,1012.17
2019-03-21T05:58:07.594Z,1012.18
2019-03-21T05:59:07.568Z,1012.24
2019-03-21T06:00:07.535Z,1012.22
2019-03-21T06:01:07.510Z,1012.20
2019-03-21T06:02:07.484Z,1012.23
2019-03-21T06:03:07.462Z,1012.21
2019-03-21T06:04:07.438Z,1012.21
2019-03-21T06:05:07.411Z,1012.21
2019-03-21T06:06:07.385Z,1012.20
2019-03-21T06:07:07.366Z,1012.21
2019-03-21T06:08:07.340Z,1012.19
2019-03-21T06:09:07.308Z,1012.22
2019-03-21T06:10:07.288Z,1012.20
2019-03-21T06:11:07.278Z,1012.26
2019-03-21T06:12:07.243Z,1012.25
2019-03-21T06:13:07.208Z,1012.23
2019-03-21T06:14:07.183Z,1012.22
2019-03-21T06:15:07.157Z,1012.25
2019-03-21T06:16:07.137Z,1012.22
2019-03-21T06:17:07.109Z,1012.25
2019-03-21T06:18:07.102Z,1012.25
2019-03-21T06:19:07.054Z,1012.27
2019-03-21T06:20:07.032Z,1012.30
2019-03-21T06:21:07.013Z,1012.31
2019-03-21T06:22:07.017Z,1012.27
2019-03-21T06:23:06.958Z,1012.28
2019-03-21T06:24:06.932Z,1012.27
2019-03-21T06:25:06.912Z,1012.30
2019-03-21T06:26:06.894Z,1012.29
2019-03-21T06:27:14.416Z,1012.29
2019-03-21T06:28:06.837Z,1012.29
2019-03-21T06:29:06.810Z,1012.30
2019-03-21T06:30:06.788Z,1012.28
2019-03-21T06:31:06.755Z,1012.26
2019-03-21T06:32:06.736Z,1012.29
2019-03-21T06:33:06.704Z,1012.35
2019-03-21T06:34:06.685Z,1012.34
2019-03-21T06:35:06.663Z,1012.36
2019-03-21T06:36:06.635Z,1012.38
2019-03-21T06:37:06.611Z,1012.35
2019-03-21T06:38:06.585Z,1012.34
2019-03-21T06:39:06.554Z,1012.38
2019-03-21T06:40:06.538Z,1012.40
2019-03-21T06:41:06.507Z,1012.39
2019-03-21T06:42:06.480Z,1012.37
2019-03-21T06:43:06.461Z,1012.34
2019-03-21T06:44:06.432Z,1012.39
2019-03-21T06:45:06.410Z,1012.37
2019-03-21T06:46:06.384Z,1012.38
2019-03-21T06:47:06.359Z,1012.39
2019-03-21T06:48:06.359Z,1012.41
2019-03-21T06:49:06.308Z,1012.43
2019-03-21T06:50:06.285Z,1012.45
2019-03-21T06:51:06.270Z,1012.47
2019-03-21T06:52:06.241Z,1012.51
2019-03-21T06:53:06.220Z,1012.51
2019-03-21T06:54:06.190Z,1012.51
2019-03-21T06:55:06.168Z,1012.55
2019-03-21T06:56:06.136Z,1012.49
2019-03-21T06:57:06.121Z,1012.53
2019-03-21T06:58:06.088Z,1012.55
2019-03-21T06:59:06.066Z,1012.58
2019-03-21T07:00:06.044Z,1012.62
2019-03-21T07:01:06.019Z,1012.60
2019-03-21T07:02:05.994Z,1012.64
2019-03-21T07:03:05.973Z,1012.64
2019-03-21T07:04:07.339Z,1012.62
2019-03-21T07:05:05.927Z,1012.64
2019-03-21T07:06:05.915Z,1012.65
2019-03-21T07:07:08.458Z,1012.70
2019-03-21T07:08:05.854Z,1012.68
2019-03-21T07:09:05.834Z,1012.70
2019-03-21T07:10:05.807Z,1012.62
2019-03-21T07:11:05.783Z,1012.67
2019-03-21T07:12:05.752Z,1012.66
2019-03-21T07:13:05.744Z,1012.68
2019-03-21T07:14:05.723Z,1012.70
2019-03-21T07:15:05.689Z,1012.69
2019-03-21T07:16:05.656Z,1012.71
2019-03-21T07:17:05.641Z,1012.72
2019-03-21T07:18:05.620Z,1012.73
2019-03-21T07:19:05.586Z,1012.71
2019-03-21T07:20:05.566Z,1012.76
2019-03-21T07:21:05.547Z,1012.68
2019-03-21T07:22:05.537Z,1012.70
2019-03-21T07:23:05.502Z,1012.67
2019-03-21T07:24:05.474Z,1012.65
2019-03-21T07:25:05.451Z,1012.67
2019-03-21T07:26:06.759Z,1012.69
2019-03-21T07:27:05.403Z,1012.68
2019-03-21T07:28:05.377Z,1012.68
2019-03-21T07:29:05.349Z,1012.71
2019-03-21T07:30:05.335Z,1012.73
2019-03-21T07:31:05.308Z,1012.76
2019-03-21T07:32:05.283Z,1012.72
2019-03-21T07:33:05.258Z,1012.72
2019-03-21T07:34:05.241Z,1012.73
2019-03-21T07:35:05.213Z,1012.68
2019-03-21T07:36:05.191Z,1012.71
2019-03-21T07:37:05.174Z,1012.66
2019-03-21T07:38:05.149Z,1012.68
2019-03-21T07:39:05.186Z,1012.68
2019-03-21T07:40:05.142Z,1012.64
2019-03-21T07:41:05.078Z,1012.65
2019-03-21T07:42:05.061Z,1012.66
2019-03-21T07:43:05.038Z,1012.66
2019-03-21T07:44:05.017Z,1012.70
2019-03-21T07:45:04.992Z,1012.72
2019-03-21T07:46:04.964Z,1012.73
2019-03-21T07:47:12.680Z,1012.71
2019-03-21T07:48:05.351Z,1012.73
2019-03-21T07:49:04.930Z,1012.69
2019-03-21T07:50:04.893Z,1012.73
2019-03-21T07:51:04.854Z,1012.77
2019-03-21T07:52:04.841Z,1012.76
2019-03-21T07:53:04.845Z,1012.78
2019-03-21T07:54:04.799Z,1012.81
2019-03-21T07:55:04.780Z,1012.75
2019-03-21T07:56:04.758Z,1012.81
2019-03-21T07:57:04.732Z,1012.84
2019-03-21T07:58:04.712Z,1012.82
2019-03-21T07:59:04.691Z,1012.78
2019-03-21T08:00:04.675Z,1012.78
2019-03-21T08:01:04.651Z,1012.76
2019-03-21T08:02:04.638Z,1012.76
2019-03-21T08:03:04.616Z,1012.76
2019-03-21T08:04:04.598Z,1012.81
2019-03-21T08:05:04.602Z,1012.78
2019-03-21T08:06:04.559Z,1012.84
2019-03-21T08:07:04.541Z,1012.79
2019-03-21T08:08:04.525Z,1012.82
2019-03-21T08:09:04.500Z,1012.82
2019-03-21T08:10:04.486Z,1012.84
2019-03-21T08:11:04.471Z,1012.80
2019-03-21T08:12:04.448Z,1012.81
2019-03-21T08:13:04.426Z,1012.83
2019-03-21T08:14:04.413Z,1012.77
2019-03-21T08:15:04.394Z,1012.78
2019-03-21T08:16:04.381Z,1012.75
2019-03-21T08:17:04.353Z,1012.74
2019-03-21T08:18:04.337Z,1012.76
2019-03-21T08:19:04.319Z,1012.77
2019-03-21T08:20:04.299Z,1012.80
2019-03-21T08:21:04.289Z,1012.79
2019-03-21T08:22:04.269Z,1012.79
2019-03-21T08:23:04.247Z,1012.84
2019-03-21T08:24:04.234Z,1012.79
2019-03-21T08:25:04.224Z,1012.83
2019-03-21T08:26:04.202Z,1012.79
2019-03-21T08:27:04.180Z,1012.83
2019-03-21T08:28:04.167Z,1012.83
2019-03-21T08:29:04.159Z,1012.84
2019-03-21T08:30:04.129Z,1012.83
2019-03-21T08:31:04.114Z,1012.83
2019-03-21T08:32:04.107Z,1012.84
2019-03-21T08:33:04.110Z,1012.88
2019-03-21T08:34:04.069Z,1012.85
2019-03-21T08:35:04.050Z,1012.85
2019-03-21T08:36:04.033Z,1012.84
2019-03-21T08:37:04.023Z,1012.82
2019-03-21T08:38:04.062Z,1012.84
2019-03-21T08:39:04.012Z,1012.84
2019-03-21T08:40:03.969Z,1012.82
2019-03-21T08:41:03.960Z,1012.82
2019-03-21T08:42:03.947Z,1012.86
2019-03-21T08:43:03.938Z,1012.87
2019-03-21T08:44:03.903Z,1012.87
2019-03-21T08:45:03.890Z,1012.84
2019-03-21T08:46:03.913Z,1012.86
2019-03-21T08:47:03.855Z,1012.87
2019-03-21T08:48:03.839Z,1012.80
2019-03-21T08:49:03.828Z,1012.80
2019-03-21T08:50:03.810Z,1012.81
2019-03-21T08:51:08.626Z,1012.81
2019-03-21T08:52:03.778Z,1012.82
2019-03-21T08:53:03.762Z,1012.82
2019-03-21T08:54:03.740Z,1012.81
2019-03-21T08:55:03.724Z,1012.85
2019-03-21T08:56:03.718Z,1012.82
2019-03-21T08:57:03.705Z,1012.80
2019-03-21T08:58:03.683Z,1012.77
2019-03-21T08:59:03.664Z,1012.78
2019-03-21T09:00:03.681Z,1012.82
2019-03-21T09:01:03.632Z,1012.82
2019-03-21T09:02:03.616Z,1012.80
2019-03-21T09:03:03.601Z,1012.82
2019-03-21T09:04:03.585Z,1012.81
2019-03-21T09:05:03.575Z,1012.79
2019-03-21T09:06:03.563Z,1012.82
2019-03-21T09:07:03.531Z,1012.84
2019-03-21T09:08:03.531Z,1012.88
2019-03-21T09:09:03.506Z,1012.86
2019-03-21T09:10:03.494Z,1012.90
2019-03-21T09:11:03.475Z,1012.89
2019-03-21T09:12:03.461Z,1012.85
2019-03-21T09:13:03.454Z,1012.88
2019-03-21T09:14:03.432Z,1012.90
2019-03-21T09:15:03.410Z,1012.85
2019-03-21T09:16:03.400Z,1012.81
2019-03-21T09:17:03.381Z,1012.85
2019-03-21T09:18:03.371Z,1012.82
2019-03-21T09:19:03.352Z,1012.79
2019-03-21T09:20:03.333Z,1012.77
2019-03-21T09:21:03.328Z,1012.80
2019-03-21T09:22:03.297Z,1012.80
2019-03-21T09:23:03.290Z,1012.83
2019-03-21T09:24:03.268Z,1012.83
2019-03-21T09:25:04.762Z,1012.79
2019-03-21T09:26:03.235Z,1012.79
2019-03-21T09:27:03.219Z,1012.80
2019-03-21T09:28:03.271Z,1012.82
2019-03-21T09:29:03.193Z,1012.76
2019-03-21T09:30:03.176Z,1012.81
2019-03-21T09:31:03.164Z,1012.83
2019-03-21T09:32:03.158Z,1012.80
2019-03-21T09:33:03.134Z,1012.77
2019-03-21T09:34:03.116Z,1012.84
2019-03-21T09:35:03.093Z,1012.83
2019-03-21T09:36:03.077Z,1012.77
2019-03-21T09:37:04.139Z,1012.79
2019-03-21T09:38:03.045Z,1012.84
2019-03-21T09:39:03.039Z,1012.81
2019-03-21T09:40:03.024Z,1012.80
2019-03-21T09:41:02.997Z,1012.83
2019-03-21T09:42:02.990Z,1012.85
2019-03-21T09:43:03.363Z,1012.83
2019-03-21T09:44:02.960Z,1012.85
2019-03-21T09:45:02.946Z,1012.88
2019-03-21T09:46:02.925Z,1012.82
2019-03-21T09:47:02.910Z,1012.83
2019-03-21T09:48:02.925Z,1012.81
2019-03-21T09:49:02.881Z,1012.82
2019-03-21T09:50:02.865Z,1012.81
2019-03-21T09:51:02.855Z,1012.77
2019-03-21T09:52:02.839Z,1012.80
2019-03-21T09:53:02.822Z,1012.78
2019-03-21T09:54:09.503Z,1012.79
2019-03-21T09:55:02.798Z,1012.75
2019-03-21T09:56:02.776Z,1012.76
2019-03-21T09:57:02.766Z,1012.75
2019-03-21T09:58:02.747Z,1012.77
2019-03-21T09:59:02.731Z,1012.71
2019-03-21T10:00:02.734Z,1012.75
2019-03-21T10:01:02.705Z,1012.73
2019-03-21T10:02:02.686Z,1012.76
2019-03-21T10:03:02.681Z,1012.69
2019-03-21T10:04:02.657Z,1012.70
2019-03-21T10:05:02.650Z,1012.68
2019-03-21T10:06:02.749Z,1012.69
2019-03-21T10:07:02.618Z,1012.70
2019-03-21T10:08:02.600Z,1012.64
2019-03-21T10:09:02.587Z,1012.61
2019-03-21T10:10:02.571Z,1012.64
2019-03-21T10:11:02.559Z,1012.66
2019-03-21T10:12:02.545Z,1012.66
2019-03-21T10:13:02.529Z,1012.67
2019-03-21T10:14:02.518Z,1012.61
2019-03-21T10:15:02.499Z,1012.64
2019-03-21T10:16:02.495Z,1012.59
2019-03-21T10:17:02.476Z,1012.55
2019-03-21T10:18:02.535Z,1012.58
2019-03-21T10:19:02.448Z,1012.61
2019-03-21T10:20:02.444Z,1012.65
2019-03-21T10:21:02.426Z,1012.61
2019-03-21T10:22:02.418Z,1012.62
2019-03-21T10:23:02.401Z,1012.61
2019-03-21T10:24:02.392Z,1012.55
2019-03-21T10:25:02.373Z,1012.62
2019-03-21T10:26:02.362Z,1012.62
2019-03-21T10:27:02.355Z,1012.60
2019-03-21T10:28:02.336Z,1012.60
2019-03-21T10:29:02.340Z,1012.59
2019-03-21T10:30:02.498Z,1012.53
2019-03-21T10:31:02.313Z,1012.53
2019-03-21T10:32:13.662Z,1012.56
2019-03-21T10:33:02.291Z,1012.55
2019-03-21T10:34:02.271Z,1012.57
2019-03-21T10:35:02.262Z,1012.56
2019-03-21T10:36:02.252Z,1012.59
2019-03-21T10:37:02.236Z,1012.58
2019-03-21T10:38:02.230Z,1012.54
2019-03-21T10:39:02.227Z,1012.54
2019-03-21T10:40:02.206Z,1012.59
2019-03-21T10:41:02.195Z,1012.55
2019-03-21T10:42:02.189Z,1012.64
2019-03-21T10:43:02.182Z,1012.62
2019-03-21T10:44:02.194Z,1012.62
2019-03-21T10:45:02.197Z,1012.65
2019-03-21T10:46:02.151Z,1012.62
2019-03-21T10:47:02.148Z,1012.63
2019-03-21T10:48:02.129Z,1012.61
2019-03-21T10:49:02.120Z,1012.61
2019-03-21T10:50:02.112Z,1012.54
2019-03-21T10:51:02.110Z,1012.56
2019-03-21T10:52:02.094Z,1012.54
2019-03-21T10:53:02.087Z,1012.53
2019-03-21T10:54:02.083Z,1012.52
2019-03-21T10:55:02.075Z,1012.54
2019-03-21T10:56:02.066Z,1012.55
2019-03-21T10:57:02.054Z,1012.53
2019-03-21T10:58:02.049Z,1012.51
2019-03-21T10:59:02.044Z,1012.54
2019-03-21T11:00:02.403Z,1012.52
2019-03-21T11:01:02.027Z,1012.50
2019-03-21T11:02:07.257Z,1012.48
2019-03-21T11:03:02.005Z,1012.49
2019-03-21T11:04:02.011Z,1012.47
2019-03-21T11:05:01.995Z,1012.53
2019-03-21T11:06:01.988Z,1012.46
2019-03-21T11:07:01.981Z,1012.48
2019-03-21T11:08:01.975Z,1012.48
2019-03-21T11:09:01.966Z,1012.48
2019-03-21T11:10:01.963Z,1012.47
2019-03-21T11:11:01.951Z,1012.45
2019-03-21T11:12:01.954Z,1012.48
2019-03-21T11:13:01.940Z,1012.41
2019-03-21T11:14:01.925Z,1012.46
2019-03-21T11:15:01.922Z,1012.36
2019-03-21T11:16:01.919Z,1012.43
2019-03-21T11:17:01.910Z,1012.40
2019-03-21T11:18:01.898Z,1012.35
2019-03-21T11:19:01.894Z,1012.33
2019-03-21T11:20:01.885Z,1012.33
2019-03-21T11:21:01.883Z,1012.32
2019-03-21T11:22:06.339Z,1012.34
2019-03-21T11:23:01.876Z,1012.33
2019-03-21T11:24:01.868Z,1012.29
2019-03-21T11:25:01.851Z,1012.28
2019-03-21T11:26:01.842Z,1012.30
2019-03-21T11:27:01.842Z,1012.24
2019-03-21T11:28:01.850Z,1012.34
2019-03-21T11:29:01.829Z,1012.34
2019-03-21T11:30:01.816Z,1012.29
2019-03-21T11:31:01.810Z,1012.28
2019-03-21T11:32:01.804Z,1012.25
2019-03-21T11:33:01.812Z,1012.26
2019-03-21T11:34:01.868Z,1012.25
2019-03-21T11:35:01.797Z,1012.24
2019-03-21T11:36:01.782Z,1012.18
2019-03-21T11:37:01.778Z,1012.20
2019-03-21T11:38:01.794Z,1012.20
2019-03-21T11:39:01.769Z,1012.18
2019-03-21T11:40:01.765Z,1012.19
2019-03-21T11:41:01.767Z,1012.11
2019-03-21T11:42:01.755Z,1012.11
2019-03-21T11:43:01.761Z,1012.10
2019-03-21T11:44:01.743Z,1012.01
2019-03-21T11:45:01.733Z,1012.07
2019-03-21T11:46:01.762Z,1012.08
2019-03-21T11:47:01.750Z,1012.08
2019-03-21T11:48:01.727Z,1012.05
2019-03-21T11:49:01.711Z,1011.98
2019-03-21T11:50:01.724Z,1012.03
2019-03-21T11:51:01.698Z,1011.97
2019-03-21T11:52:01.695Z,1011.96
2019-03-21T11:53:01.686Z,1011.93
2019-03-21T11:54:01.681Z,1011.93
2019-03-21T11:55:01.675Z,1011.88
2019-03-21T11:56:01.707Z,1011.90
2019-03-21T11:57:01.669Z,1011.88
2019-03-21T11:58:01.657Z,1011.88
2019-03-21T11:59:01.648Z,1011.86
2019-03-21T12:00:01.651Z,1011.91
2019-03-21T12:01:01.644Z,1011.93
2019-03-21T12:02:01.638Z,1011.92
2019-03-21T12:03:04.089Z,1011.89
2019-03-21T12:04:01.629Z,1011.85
2019-03-21T12:05:01.623Z,1011.88